Bootsie B, — WDF9484 — position and weather

sailwx.info

Track history (hours):
 
Tides and Currents Weather Stations Pressure Air Temp Water Temp Dewpoint Dewpoint Depression Visibility Wind Speed Wind Dir Waves Ship Positions

Bootsie B,

Owner: Marquette Transp[ortation Co. LLC, Paducah, KY. More information available from US FCC via Universal Licensing System and Coast Guard Vessel Documentation Center.

Last reported at 2014-Sep-21 11:29 UTC. Time now 2014-Oct-02 02:36 UTC.
Position N 30°01' W 090°50'.
Warning: this ship's position is 10 days out of date.

Length 57 m; draft 2 m.

Type: Towing. MMSI: 367505630.

Date/timePositionNaut miles runAvg speedWind from/ knotsBaromVisibWave heightAir tempDewpointWater temp
2014-Sep-21 11:29N 30°01' W 090°50'3 3.4
2014-Sep-21 10:33N 30°00' W 090°47'7 6.7
2014-Sep-21 09:33N 30°03' W 090°40'1 1.2
2014-Sep-21 08:33N 30°03' W 090°38'0 0.0
2014-Sep-21 07:33N 30°03' W 090°38'0 0.1
2014-Sep-21 06:33N 30°03' W 090°38'2 1.9
2014-Sep-21 05:33N 30°02' W 090°36'6 6.2
2014-Sep-21 04:33N 30°03' W 090°29'6 5.7
2014-Sep-21 03:33N 29°59' W 090°24'8 1.5
2014-Sep-20 22:09N 29°58' W 090°15'3 5.6
2014-Sep-20 21:33N 29°57' W 090°19'7 7.4
2014-Sep-20 20:33N 29°60' W 090°26'7 7.0
2014-Sep-20 19:33N 30°03' W 090°33'1 0.8
2014-Sep-20 18:33N 30°03' W 090°34'3 2.9
2014-Sep-20 17:33N 30°02' W 090°37'6 6.1
2014-Sep-20 16:33N 30°01' W 090°44'5 4.4
2014-Sep-20 15:28N 29°59' W 090°49'7 5.6
2014-Sep-20 14:10N 30°05' W 090°55'0 0.0
2014-Sep-20 08:33N 30°05' W 090°55'3 1.4
2014-Sep-20 06:05N 30°08' W 090°57'  
Track history (hours):
 
Tides and Currents Weather Stations Pressure Air Temp Water Temp Dewpoint Dewpoint Depression Visibility Wind Speed Wind Dir Waves Ship Positions

Bootsie B,

Owner: Marquette Transp[ortation Co. LLC, Paducah, KY. More information available from US FCC via Universal Licensing System and Coast Guard Vessel Documentation Center.

Last reported at 2014-Sep-21 11:29 UTC. Time now 2014-Oct-02 02:36 UTC.
Position N 30°01' W 090°50'.
Warning: this ship's position is 10 days out of date.

Length 57 m; draft 2 m.

Type: Towing. MMSI: 367505630.

Date/timePositionNaut miles runAvg speedWind from/ knotsBaromVisibWave heightAir tempDewpointWater temp
2014-Sep-21 11:29N 30°01' W 090°50'3 3.4
2014-Sep-21 10:33N 30°00' W 090°47'7 6.7
2014-Sep-21 09:33N 30°03' W 090°40'1 1.2
2014-Sep-21 08:33N 30°03' W 090°38'0 0.0
2014-Sep-21 07:33N 30°03' W 090°38'0 0.1
2014-Sep-21 06:33N 30°03' W 090°38'2 1.9
2014-Sep-21 05:33N 30°02' W 090°36'6 6.2
2014-Sep-21 04:33N 30°03' W 090°29'6 5.7
2014-Sep-21 03:33N 29°59' W 090°24'8 1.5
2014-Sep-20 22:09N 29°58' W 090°15'3 5.6
2014-Sep-20 21:33N 29°57' W 090°19'7 7.4
2014-Sep-20 20:33N 29°60' W 090°26'7 7.0
2014-Sep-20 19:33N 30°03' W 090°33'1 0.8
2014-Sep-20 18:33N 30°03' W 090°34'3 2.9
2014-Sep-20 17:33N 30°02' W 090°37'6 6.1
2014-Sep-20 16:33N 30°01' W 090°44'5 4.4
2014-Sep-20 15:28N 29°59' W 090°49'7 5.6
2014-Sep-20 14:10N 30°05' W 090°55'0 0.0
2014-Sep-20 08:33N 30°05' W 090°55'3 1.4
2014-Sep-20 06:05N 30°08' W 090°57'  

Dump ship's entire track history